Hlavní strana
METAR-TAF:

METAR-TAF

Letiště :

Fort Simpson, Severozápadní teritoria, Kanada

zeměpisná šířka: 61-45N, zeměpisná délka: 121-14W, výška: 168 m

Aktuální stav počasí

Zpráva byla vytvořena před 58 minutami, v 09:00 UTC
Východojihovýchodní vítr 5 kt
Teplota -26°C
Vlhkost vzduchu 76%
Tlak 1039 hPa
Viditelnost: 24.1 km
Jasno

METAR: CYFS 170900Z 12005KT 15SM SKC M26/M29 A3067 RMK SLP410

Čas: 02:58 (09:58 UTC)

Předpověď počasí

Zpráva byla vytvořena před 4 hodinami a 20 minutami, v 05:38 UTC
Předpověď platná od 17 v 06 UTC do 17 v 18 UTC
vítr z různých směrů 3 kt
Viditelnost: 10 km
Polojasno ve výšce 1200 ft
Polojasno ve výšce 20000 ft
Změna
od 17 v 08 UTC do 17 v 10 UTC
Jihovýchodní vítr 6 kt

TAF: CYFS 170538Z 1706/1718 VRB03KT P6SM SCT012 SCT200 BECMG 1708/1710 13006KT RMK NXT FCST BY 171200Z

Stav a předpovědi počasí z více než 4 000 letišť (zprávy METAR a TAF).

Červené a žluté tečky na mapě představují dostupné meteorologické stanice.

Když kurzor umístíte na tečku, zobrazí se název stanice.

Pak kliknutím zobrazíte stav a předpověď počasí.

Chcete-li změnit mapu, kliknutím na zelené tlačítko se znaménkem +mapu přiblížíte, kliknutím na zelené tlačítko se znaménkem – mapu oddálíte a kliknutím na zelené šipky přejdete na sousední mapy.


METAR-TAF: